Time;durP1;ratioP1;P1;durP2;ratioP2;P2;SDS_P1;SDS_P2;PMS_P1;PMS_P2;Temp;Humidity;BMP_temperature;BMP_pressure;BME280_temperature;BME280_humidity;BME280_pressure;Samples;Min_cycle;Max_cycle;Signal;HPM_P1;HPM_P2
2023/07/05 00:01:22;;;;;;;81.93;77.93;;;;;;;23.40;44.08;100275.59;5093011;28;20119;-67
2023/07/05 00:03:48;;;;;;;83.60;79.93;;;;;;;23.38;44.47;100267.66;5093696;28;20111;-67
2023/07/05 00:06:13;;;;;;;81.90;78.20;;;;;;;23.36;44.09;100258.09;5093642;28;20400;-67
2023/07/05 00:08:40;;;;;;;79.75;75.80;;;;;;;23.32;44.00;100239.50;5093626;28;20032;-67
2023/07/05 00:11:07;;;;;;;83.53;79.80;;;;;;;23.30;44.01;100246.50;5093321;28;20036;-68
2023/07/05 00:13:33;;;;;;;80.77;76.87;;;;;;;23.27;43.97;100236.97;5093402;28;20039;-68
2023/07/05 00:15:59;;;;;;;81.80;77.68;;;;;;;23.24;44.14;100237.66;5093250;28;20384;-68
2023/07/05 00:18:25;;;;;;;80.53;76.82;;;;;;;23.23;44.33;100227.75;5093028;28;20081;-68
2023/07/05 00:20:51;;;;;;;77.85;74.25;;;;;;;23.20;44.64;100209.16;5093252;28;20036;-66
2023/07/05 00:23:16;;;;;;;81.03;77.13;;;;;;;23.18;44.65;100192.16;5093152;28;20031;-66
2023/07/05 00:25:41;;;;;;;78.35;74.65;;;;;;;23.17;44.60;100168.53;5093256;28;20035;-68
2023/07/05 00:28:07;;;;;;;80.90;77.22;;;;;;;23.15;44.44;100162.53;5091820;28;20553;-66
2023/07/05 00:30:32;;;;;;;78.47;74.80;;;;;;;23.11;44.80;100165.19;5091998;28;20028;-66
2023/07/05 00:32:58;;;;;;;76.30;72.60;;;;;;;23.10;44.60;100171.81;5091869;28;20028;-67
2023/07/05 00:35:23;;;;;;;75.75;72.32;;;;;;;23.07;44.47;100172.50;5093108;28;20103;-66
2023/07/05 00:37:48;;;;;;;75.47;72.07;;;;;;;23.06;45.03;100159.91;5093116;28;20116;-67
2023/07/05 00:40:14;;;;;;;76.78;73.35;;;;;;;23.04;44.59;100153.91;5092651;28;20035;-68
2023/07/05 00:42:39;;;;;;;77.82;74.13;;;;;;;23.04;44.98;100164.13;5091808;28;20032;-68
2023/07/05 00:45:11;;;;;;;76.32;72.82;;;;;;;23.01;44.81;100142.78;5093088;28;20032;-68
2023/07/05 00:47:40;;;;;;;76.15;72.68;;;;;;;22.98;44.69;100135.19;5092981;28;20028;-68
2023/07/05 00:50:30;;;;;;;75.85;71.93;;;;;;;22.96;45.18;100140.22;5092670;28;20028;-69
2023/07/05 00:52:56;;;;;;;77.60;74.10;;;;;;;22.94;45.15;100142.50;5092963;28;20367;-72
2023/07/05 00:55:25;;;;;;;77.35;73.75;;;;;;;22.91;44.87;100132.97;5093280;28;20089;-67
2023/07/05 00:57:50;;;;;;;79.07;75.57;;;;;;;22.89;44.76;100127.00;5092639;28;20462;-67
2023/07/05 01:00:18;;;;;;;74.60;71.20;;;;;;;22.86;45.20;100122.97;5093054;28;20190;-67
2023/07/05 01:02:49;;;;;;;75.65;72.15;;;;;;;22.84;45.36;100144.53;5097358;28;20024;-66
2023/07/05 01:05:15;;;;;;;73.53;70.22;;;;;;;22.83;45.00;100128.34;5096291;28;20070;-67
2023/07/05 01:07:40;;;;;;;75.80;72.40;;;;;;;22.81;45.35;100136.97;5096627;28;20056;-66
2023/07/05 01:10:15;;;;;;;77.43;73.85;;;;;;;22.78;45.17;100150.59;5095190;28;20034;-67
2023/07/05 01:12:46;;;;;;;74.97;71.57;;;;;;;22.75;45.64;100149.31;5096725;28;20410;-68
2023/07/05 01:15:15;;;;;;;76.55;72.50;;;;;;;22.73;45.49;100151.63;5096915;28;20035;-66
2023/07/05 01:17:57;;;;;;;75.47;72.07;;;;;;;22.72;45.20;100146.47;5094683;28;20036;-68
2023/07/05 01:20:42;;;;;;;76.68;72.97;;;;;;;22.70;45.57;100141.28;5096215;28;20028;-67
2023/07/05 01:23:13;;;;;;;75.88;72.38;;;;;;;22.67;45.51;100147.47;5096555;28;20032;-67
2023/07/05 01:26:01;;;;;;;74.78;71.38;;;;;;;22.66;45.52;100145.88;5095896;28;20024;-67
2023/07/05 01:28:49;;;;;;;74.30;70.40;;;;;;;22.62;45.38;100148.47;5096179;28;20028;-67
2023/07/05 01:31:30;;;;;;;74.97;71.57;;;;;;;22.60;45.41;100153.53;5076118;28;20532;-67
2023/07/05 01:34:10;;;;;;;77.18;73.68;;;;;;;22.58;45.69;100147.56;5096074;28;20032;-67
2023/07/05 01:36:37;;;;;;;76.90;73.20;;;;;;;22.55;45.39;100153.72;5094750;28;20111;-66
2023/07/05 01:39:03;;;;;;;74.78;71.43;;;;;;;22.54;45.50;100159.59;5095855;28;20158;-68
2023/07/05 01:41:28;;;;;;;73.95;70.55;;;;;;;22.53;45.70;100171.72;5095779;28;20192;-66
2023/07/05 01:43:54;;;;;;;74.45;70.85;;;;;;;22.51;45.61;100174.81;5094249;28;20110;-67
2023/07/05 01:46:23;;;;;;;74.72;71.18;;;;;;;22.49;45.84;100179.84;5095671;28;20036;-66
2023/07/05 01:49:01;;;;;;;74.10;70.65;;;;;;;22.47;45.89;100195.88;5095584;28;20031;-67
2023/07/05 01:51:41;;;;;;;74.70;71.40;;;;;;;22.45;45.76;100192.66;5095967;28;20031;-67
2023/07/05 01:54:34;;;;;;;74.93;71.43;;;;;;;22.42;46.05;100207.91;5096049;28;20024;-66
2023/07/05 01:56:59;;;;;;;71.90;68.60;;;;;;;22.39;46.07;100222.34;5095705;28;20020;-67
2023/07/05 01:59:50;;;;;;;71.97;68.57;;;;;;;22.37;45.85;100240.31;5095659;28;20032;-67
2023/07/05 02:02:19;;;;;;;72.75;69.45;;;;;;;22.33;45.86;100245.69;5095532;28;20024;-66
2023/07/05 02:04:46;;;;;;;71.05;67.93;;;;;;;22.32;46.26;100251.53;5094648;28;20020;-66
2023/07/05 02:07:12;;;;;;;76.28;72.78;;;;;;;22.30;45.61;100253.78;5095022;28;20433;-66
2023/07/05 02:09:38;;;;;;;72.65;69.40;;;;;;;22.28;46.24;100251.41;5094948;28;20051;-66
2023/07/05 02:12:06;;;;;;;69.88;66.72;;;;;;;22.26;46.06;100256.41;5095196;28;20105;-67
2023/07/05 02:14:31;;;;;;;72.40;69.15;;;;;;;22.23;45.60;100260.66;5094886;28;20384;-66
2023/07/05 02:16:56;;;;;;;72.05;68.75;;;;;;;22.22;45.63;100258.22;5095310;28;20077;-66
2023/07/05 02:19:22;;;;;;;70.00;66.70;;;;;;;22.19;45.90;100251.44;5094032;28;20124;-66
2023/07/05 02:21:47;;;;;;;72.00;68.60;;;;;;;22.18;45.86;100254.50;5094576;28;20118;-67
2023/07/05 02:24:13;;;;;;;74.40;70.90;;;;;;;22.16;45.68;100251.28;5095436;28;20360;-67
2023/07/05 02:26:38;;;;;;;73.28;70.00;;;;;;;22.13;45.86;100258.25;5095220;28;20036;-67
2023/07/05 02:29:04;;;;;;;72.07;68.72;;;;;;;22.11;45.51;100265.22;5094850;28;20456;-67
2023/07/05 02:31:29;;;;;;;72.70;69.40;;;;;;;22.09;45.56;100273.00;5094855;28;20028;-67
2023/07/05 02:33:55;;;;;;;71.88;68.65;;;;;;;22.07;45.86;100254.06;5094803;28;20081;-67
2023/07/05 02:36:20;;;;;;;74.53;70.90;;;;;;;22.06;45.68;100254.41;5095055;28;20089;-68
2023/07/05 02:38:46;;;;;;;70.07;66.72;;;;;;;22.03;45.50;100258.63;5093358;28;20081;-67
2023/07/05 02:41:11;;;;;;;72.50;68.90;;;;;;;22.00;45.51;100260.09;5094452;28;20039;-67
2023/07/05 02:43:37;;;;;;;72.88;69.57;;;;;;;21.98;45.76;100258.81;5094579;28;20035;-68
2023/07/05 02:46:03;;;;;;;70.90;67.65;;;;;;;21.95;45.44;100249.28;5059801;28;20024;-68
2023/07/05 02:48:28;;;;;;;70.13;66.82;;;;;;;21.94;45.31;100246.84;5094322;28;20024;-67
2023/07/05 02:50:53;;;;;;;69.95;66.75;;;;;;;21.91;45.23;100256.56;5094167;28;20036;-66
2023/07/05 02:53:19;;;;;;;70.18;66.97;;;;;;;21.89;45.74;100252.53;5094822;28;20035;-68
2023/07/05 02:55:44;;;;;;;69.30;66.13;;;;;;;21.87;45.28;100255.63;5094308;28;20060;-68
2023/07/05 02:58:10;;;;;;;70.72;67.57;;;;;;;21.84;45.73;100253.53;5094459;28;20032;-69
2023/07/05 03:00:36;;;;;;;72.25;68.78;;;;;;;21.82;45.09;100250.31;5094116;28;20380;-66
2023/07/05 03:03:02;;;;;;;69.70;66.50;;;;;;;21.79;45.41;100251.75;5094207;28;20101;-66
2023/07/05 03:05:27;;;;;;;68.97;65.78;;;;;;;21.77;45.28;100254.06;5092918;28;20134;-66
2023/07/05 03:07:53;;;;;;;68.00;64.80;;;;;;;21.76;45.31;100246.13;5093806;28;20502;-68
2023/07/05 03:10:18;;;;;;;70.50;67.20;;;;;;;21.72;45.28;100240.50;5094552;28;20531;-67
2023/07/05 03:12:44;;;;;;;69.28;65.97;;;;;;;21.71;45.54;100246.31;5094517;28;20032;-66
2023/07/05 03:15:09;;;;;;;68.53;64.97;;;;;;;21.69;45.20;100260.38;5093687;28;20365;-68
2023/07/05 03:17:35;;;;;;;69.05;65.43;;;;;;;21.67;45.15;100261.84;5092968;28;20028;-67
2023/07/05 03:20:00;;;;;;;65.60;62.60;;;;;;;21.63;44.97;100253.47;5093950;28;20032;-67
2023/07/05 03:22:26;;;;;;;69.85;66.43;;;;;;;21.62;45.30;100254.63;5094083;28;20055;-66
2023/07/05 03:24:52;;;;;;;67.65;64.57;;;;;;;21.60;44.95;100252.19;5093996;28;20114;-68
2023/07/05 03:27:19;;;;;;;67.97;64.78;;;;;;;21.57;45.02;100247.34;5093772;28;20486;-67
2023/07/05 03:29:45;;;;;;;69.88;66.47;;;;;;;21.55;45.56;100246.88;5093875;28;20036;-67
2023/07/05 03:32:11;;;;;;;66.70;63.63;;;;;;;21.53;45.15;100249.13;5092487;28;20028;-71
2023/07/05 03:34:36;;;;;;;66.97;63.67;;;;;;;21.51;44.87;100251.41;5093430;28;20376;-66
2023/07/05 03:37:02;;;;;;;67.85;64.75;;;;;;;21.48;45.09;100249.31;5093948;28;20470;-67
2023/07/05 03:39:27;;;;;;;67.72;64.63;;;;;;;21.46;45.21;100243.31;5092842;28;20054;-66
2023/07/05 03:41:52;;;;;;;66.65;63.47;;;;;;;21.44;45.13;100245.59;5093452;28;20063;-68
2023/07/05 03:44:21;;;;;;;69.78;66.28;;;;;;;21.43;44.93;100243.19;5093603;28;20035;-66
2023/07/05 03:46:50;;;;;;;68.35;65.05;;;;;;;21.39;45.20;100249.34;5093794;28;20040;-66
2023/07/05 03:49:17;;;;;;;71.15;67.78;;;;;;;21.37;44.74;100257.06;5093216;28;20028;-66
2023/07/05 03:51:43;;;;;;;66.95;63.88;;;;;;;21.36;45.15;100249.16;5093550;28;20028;-66
2023/07/05 03:54:09;;;;;;;68.15;64.95;;;;;;;21.35;44.79;100251.09;5093754;28;20032;-66
2023/07/05 03:56:35;;;;;;;68.03;64.82;;;;;;;21.32;44.89;100246.25;5093106;28;20031;-69
2023/07/05 03:59:01;;;;;;;67.97;64.78;;;;;;;21.30;45.00;100244.97;5093471;28;20496;-66
2023/07/05 04:01:28;;;;;;;65.70;62.40;;;;;;;21.28;45.13;100244.50;5092793;28;20039;-66
2023/07/05 04:03:56;;;;;;;68.10;64.90;;;;;;;21.25;45.17;100237.72;5093648;28;20376;-66
2023/07/05 04:06:23;;;;;;;;;;;;;;;21.24;45.20;100244.31;5093775;28;20039;-66
2023/07/05 04:08:48;;;;;;;65.15;61.85;;;;;;;21.22;45.29;100248.53;5092877;28;19916;-67
2023/07/05 04:11:14;;;;;;;67.28;64.05;;;;;;;21.19;44.92;100252.72;5093268;28;20042;-76
2023/07/05 04:13:39;;;;;;;63.65;60.70;;;;;;;21.17;44.52;100269.56;5093088;28;20119;-66
2023/07/05 04:16:10;;;;;;;66.25;63.05;;;;;;;21.15;45.20;100255.34;5093339;28;20043;-67
2023/07/05 04:18:36;;;;;;;67.40;64.10;;;;;;;21.14;44.91;100256.47;5094015;28;20081;-66
2023/07/05 04:21:01;;;;;;;69.82;66.40;;;;;;;21.12;44.63;100253.25;5093100;28;20024;-68
2023/07/05 04:23:27;;;;;;;68.75;65.38;;;;;;;21.11;45.21;100259.84;5093115;28;20094;-66
2023/07/05 04:26:20;;;;;;;66.07;62.72;;;;;;;21.10;45.21;100282.16;5092670;28;20115;-67
2023/07/05 04:28:46;;;;;;;65.50;62.50;;;;;;;21.07;44.93;100280.06;5091962;28;20093;-67
2023/07/05 04:31:17;;;;;;;66.85;63.55;;;;;;;21.06;44.90;100283.94;5093130;28;20073;-67
2023/07/05 04:33:44;;;;;;;67.55;64.35;;;;;;;21.05;45.10;100276.84;5093602;28;20027;-67
2023/07/05 04:36:10;;;;;;;67.35;64.03;;;;;;;21.03;44.85;100279.91;5094850;28;20036;-68
2023/07/05 04:38:35;;;;;;;69.00;65.57;;;;;;;21.01;45.08;100253.91;5096976;28;20031;-66
2023/07/05 04:41:00;;;;;;;67.57;63.67;;;;;;;20.99;44.89;100254.25;5096873;28;20042;-67
2023/07/05 04:43:27;;;;;;;67.43;64.22;;;;;;;20.98;45.20;100255.34;5096867;28;20073;-67
2023/07/05 04:45:55;;;;;;;67.38;63.70;;;;;;;20.96;45.42;100263.09;5096301;28;20116;-67
2023/07/05 04:48:21;;;;;;;67.13;64.00;;;;;;;20.95;45.41;100256.00;5096958;28;20052;-69
2023/07/05 04:50:50;;;;;;;65.50;62.30;;;;;;;20.93;45.57;100261.81;5096440;28;20149;-67
2023/07/05 04:53:15;;;;;;;66.40;62.80;;;;;;;20.92;45.49;100267.66;5097447;28;20028;-67
2023/07/05 04:55:48;;;;;;;68.97;65.43;;;;;;;20.89;45.46;100266.34;5096612;28;20031;-68
2023/07/05 04:58:14;;;;;;;64.60;61.60;;;;;;;20.88;45.29;100280.41;5097162;28;20065;-67
2023/07/05 05:00:40;;;;;;;64.10;61.00;;;;;;;20.86;45.51;100279.91;5097104;28;20024;-67
2023/07/05 05:03:05;;;;;;;64.22;61.30;;;;;;;20.85;45.58;100278.31;5096236;28;20402;-67
2023/07/05 05:05:31;;;;;;;66.53;63.42;;;;;;;20.82;45.15;100277.00;5096999;28;20464;-68
2023/07/05 05:07:56;;;;;;;64.43;61.42;;;;;;;20.81;45.65;100272.63;5096573;28;20056;-68
2023/07/05 05:10:21;;;;;;;64.40;61.47;;;;;;;20.79;45.44;100285.91;5096065;28;20032;-69
2023/07/05 05:12:47;;;;;;;66.53;63.38;;;;;;;20.77;45.52;100288.16;5096040;28;20152;-68
2023/07/05 05:15:12;;;;;;;65.55;62.53;;;;;;;20.76;45.69;100292.00;5096608;28;20035;-68
2023/07/05 05:17:37;;;;;;;64.53;61.53;;;;;;;20.73;45.24;100289.91;5095987;28;20067;-68
2023/07/05 05:20:03;;;;;;;66.32;63.15;;;;;;;20.71;45.31;100294.91;5096481;28;20459;-68
2023/07/05 05:22:29;;;;;;;64.43;61.25;;;;;;;20.69;45.68;100295.25;5096461;28;20038;-68
2023/07/05 05:24:55;;;;;;;64.63;61.70;;;;;;;20.67;45.42;100299.44;5096748;28;20054;-68
2023/07/05 05:27:20;;;;;;;65.72;62.70;;;;;;;20.65;45.46;100304.44;5095056;28;20036;-67
2023/07/05 05:29:46;;;;;;;63.97;60.97;;;;;;;20.63;45.44;100302.00;5096419;28;20032;-69
2023/07/05 05:32:11;;;;;;;64.32;61.42;;;;;;;20.61;45.38;100301.50;5096002;28;20387;-67
2023/07/05 05:34:37;;;;;;;64.00;61.00;;;;;;;20.60;45.30;100299.09;5096212;28;20028;-68
2023/07/05 05:37:02;;;;;;;63.00;60.17;;;;;;;20.57;45.50;100297.00;5095962;28;20099;-67
2023/07/05 05:39:28;;;;;;;66.50;63.30;;;;;;;20.56;45.72;100307.16;5095585;28;20047;-66
2023/07/05 05:41:53;;;;;;;64.45;61.45;;;;;;;20.54;45.92;100320.38;5095770;28;20028;-67
2023/07/05 05:44:19;;;;;;;63.30;60.30;;;;;;;20.52;45.94;100317.16;5095465;28;20063;-67
2023/07/05 05:46:44;;;;;;;62.75;59.85;;;;;;;20.50;45.60;100320.19;5095850;28;20028;-66
2023/07/05 05:49:10;;;;;;;64.20;61.17;;;;;;;20.49;46.01;100323.28;5095723;28;20024;-66
2023/07/05 05:51:35;;;;;;;62.00;59.10;;;;;;;20.46;45.44;100327.47;5095580;28;20479;-66
2023/07/05 05:54:00;;;;;;;62.67;59.72;;;;;;;20.45;45.89;100327.78;5096097;28;20085;-67
2023/07/05 05:56:26;;;;;;;63.03;60.10;;;;;;;20.43;45.67;100335.50;5095335;28;20052;-68
2023/07/05 05:58:51;;;;;;;62.53;59.63;;;;;;;20.42;45.95;100350.38;5095181;28;20043;-66
2023/07/05 06:01:19;;;;;;;62.90;59.83;;;;;;;20.39;46.13;100349.06;5095544;28;20032;-67
2023/07/05 06:03:45;;;;;;;63.17;60.17;;;;;;;20.37;45.65;100361.47;5094562;28;20056;-67
2023/07/05 06:06:10;;;;;;;62.35;59.35;;;;;;;20.36;46.09;100359.84;5095566;28;20368;-66
2023/07/05 06:08:36;;;;;;;63.10;60.13;;;;;;;20.33;45.67;100364.03;5095779;28;20080;-66
2023/07/05 06:11:03;;;;;;;61.65;58.75;;;;;;;20.31;46.16;100356.13;5093665;28;20052;-66
2023/07/05 06:13:29;;;;;;;63.25;60.10;;;;;;;20.29;45.92;100368.56;5095338;28;20341;-67
2023/07/05 06:15:59;;;;;;;61.97;59.05;;;;;;;20.27;46.42;100351.59;5095094;28;20487;-67
2023/07/05 06:18:28;;;;;;;62.63;59.42;;;;;;;20.24;46.43;100355.78;5094940;28;20422;-66
2023/07/05 06:20:53;;;;;;;63.38;60.28;;;;;;;20.22;46.41;100360.78;5094855;28;20411;-66
2023/07/05 06:23:19;;;;;;;63.17;60.17;;;;;;;20.20;46.46;100370.44;5094933;28;20036;-67
2023/07/05 06:25:49;;;;;;;62.70;59.80;;;;;;;20.17;46.51;100371.88;5094589;28;20028;-67
2023/07/05 06:28:16;;;;;;;62.45;59.45;;;;;;;20.15;46.28;100374.13;5095212;28;20046;-67
2023/07/05 06:30:41;;;;;;;62.33;59.42;;;;;;;20.14;46.55;100364.31;5094773;28;20115;-67
2023/07/05 06:33:07;;;;;;;61.10;58.00;;;;;;;20.12;46.23;100368.47;5094849;28;20067;-67
2023/07/05 06:35:33;;;;;;;64.13;61.03;;;;;;;20.10;46.46;100366.84;5094296;28;20024;-67
2023/07/05 06:37:58;;;;;;;61.75;58.90;;;;;;;20.09;46.17;100381.69;5094859;28;20028;-68
2023/07/05 06:40:24;;;;;;;58.75;56.05;;;;;;;20.08;46.32;100399.28;5094842;28;20473;-68
2023/07/05 06:42:49;;;;;;;60.55;57.65;;;;;;;20.06;46.44;100393.31;5094404;28;20028;-67
2023/07/05 06:45:15;;;;;;;61.42;58.63;;;;;;;20.04;46.67;100403.75;5094631;28;20460;-67
2023/07/05 06:47:41;;;;;;;61.72;58.63;;;;;;;20.04;46.37;100405.72;5094477;28;20071;-67
2023/07/05 06:50:08;;;;;;;60.92;58.03;;;;;;;20.02;46.27;100411.50;5093847;28;20503;-67
2023/07/05 06:52:34;;;;;;;63.80;60.80;;;;;;;20.01;46.21;100422.78;5094713;28;20028;-67
2023/07/05 06:55:00;;;;;;;59.72;56.97;;;;;;;19.99;46.59;100414.88;5094099;28;20032;-67
2023/07/05 06:57:25;;;;;;;58.65;55.95;;;;;;;19.98;46.36;100435.19;5093681;28;20039;-69
2023/07/05 06:59:51;;;;;;;57.80;54.63;;;;;;;19.96;46.64;100442.91;5093306;28;20036;-69
2023/07/05 07:02:16;;;;;;;60.22;57.22;;;;;;;19.95;46.46;100441.28;5093693;28;20032;-67
2023/07/05 07:04:42;;;;;;;64.03;61.03;;;;;;;19.94;46.42;100436.94;5093788;28;20124;-67
2023/07/05 07:07:07;;;;;;;59.75;56.95;;;;;;;19.93;46.47;100448.19;5092818;28;20055;-67
2023/07/05 07:09:34;;;;;;;60.08;57.25;;;;;;;19.93;46.34;100462.69;5092692;28;20428;-67
2023/07/05 07:11:59;;;;;;;57.65;55.00;;;;;;;19.91;46.81;100464.97;5093703;28;20104;-68
2023/07/05 07:14:25;;;;;;;60.70;57.90;;;;;;;19.90;46.82;100466.06;5093769;28;20423;-68
2023/07/05 07:16:51;;;;;;;61.55;58.22;;;;;;;19.90;46.90;100479.78;5093543;28;20024;-68
2023/07/05 07:19:17;;;;;;;59.40;56.60;;;;;;;19.88;46.43;100488.34;5092747;28;20055;-66
2023/07/05 07:21:43;;;;;;;61.13;58.25;;;;;;;19.87;46.89;100475.72;5093338;28;20024;-66
2023/07/05 07:24:09;;;;;;;61.67;57.97;;;;;;;19.87;46.92;100483.97;5093505;28;20109;-66
2023/07/05 07:26:35;;;;;;;62.08;58.92;;;;;;;19.88;46.57;100495.72;5093211;28;20032;-68
2023/07/05 07:29:01;;;;;;;62.65;59.45;;;;;;;19.86;47.00;100482.34;5093231;28;20032;-66
2023/07/05 07:31:31;;;;;;;58.15;55.45;;;;;;;19.87;46.95;100480.41;5093263;28;20032;-66
2023/07/05 07:34:00;;;;;;;60.35;57.35;;;;;;;19.85;46.89;100512.81;5093439;28;20020;-66
2023/07/05 07:36:28;;;;;;;60.00;57.20;;;;;;;19.84;46.70;100535.84;5093167;28;20031;-66
2023/07/05 07:38:54;;;;;;;59.15;56.25;;;;;;;19.83;46.75;100548.75;5092908;28;20103;-67
2023/07/05 07:41:23;;;;;;;58.90;56.00;;;;;;;19.80;46.86;100541.13;5093548;28;20039;-68
2023/07/05 07:43:52;;;;;;;;;;;;;;;19.81;47.17;100539.22;5093562;28;20024;-66
2023/07/05 07:46:20;;;;;;;59.47;56.75;;;;;;;19.79;47.21;100544.19;5093201;28;19908;-66
2023/07/05 07:48:48;;;;;;;61.35;58.42;;;;;;;19.79;46.83;100544.19;5093106;28;20209;-67
2023/07/05 07:51:14;;;;;;;;;;;;;;;19.78;46.84;100532.44;5093535;28;20361;-67
2023/07/05 07:53:40;;;;;;;58.97;56.00;;;;;;;19.76;46.93;100525.63;5093018;28;20364;-67
2023/07/05 07:56:13;;;;;;;58.25;55.35;;;;;;;19.75;46.68;100551.41;5093164;28;20035;-68
2023/07/05 07:58:40;;;;;;;58.83;56.05;;;;;;;19.73;47.16;100543.50;5093011;28;20077;-68
2023/07/05 08:01:16;;;;;;;59.95;56.83;;;;;;;19.72;47.17;100547.34;5092981;28;20038;-66
2023/07/05 08:03:42;;;;;;;59.85;56.45;;;;;;;19.70;47.32;100555.06;5091431;28;20115;-66
2023/07/05 08:06:08;;;;;;;57.90;55.10;;;;;;;19.70;46.82;100557.81;5092928;28;20065;-72
2023/07/05 08:08:35;;;;;;;59.88;57.08;;;;;;;19.71;47.14;100561.38;5093409;28;20414;-66
2023/07/05 08:11:02;;;;;;;59.97;57.03;;;;;;;19.70;46.92;100560.56;5096095;28;20097;-68
2023/07/05 08:13:29;;;;;;;58.05;55.38;;;;;;;19.69;47.13;100561.69;5097154;28;20032;-67
2023/07/05 08:15:54;;;;;;;59.88;57.05;;;;;;;19.68;47.34;100562.81;5097345;28;20159;-70
2023/07/05 08:18:20;;;;;;;58.75;55.95;;;;;;;19.67;47.37;100555.69;5096913;28;20082;-66
2023/07/05 08:20:45;;;;;;;59.92;57.00;;;;;;;19.66;47.03;100554.84;5095409;28;20542;-66
2023/07/05 08:23:11;;;;;;;56.78;54.17;;;;;;;19.66;47.62;100573.22;5096893;28;20137;-66
2023/07/05 08:25:39;;;;;;;57.58;54.85;;;;;;;19.64;47.31;100573.53;5096564;28;20499;-66
2023/07/05 08:28:05;;;;;;;56.58;53.92;;;;;;;19.64;48.05;100591.91;5097033;28;20028;-67
2023/07/05 08:30:31;;;;;;;59.47;56.38;;;;;;;19.63;47.54;100596.59;5096795;28;20073;-66
2023/07/05 08:32:57;;;;;;;58.55;55.50;;;;;;;19.62;48.16;100600.41;5096453;28;20032;-70
2023/07/05 08:35:22;;;;;;;56.90;54.28;;;;;;;19.63;47.91;100593.00;5079224;28;20055;-70
2023/07/05 08:37:48;;;;;;;56.65;53.85;;;;;;;19.62;48.39;100629.75;5096824;28;20480;-69
2023/07/05 08:40:14;;;;;;;57.65;54.90;;;;;;;19.62;48.52;100608.63;5095980;28;20035;-67
2023/07/05 08:42:53;;;;;;;58.50;55.75;;;;;;;19.61;48.86;100604.28;5096225;28;20039;-68
2023/07/05 08:45:27;;;;;;;59.00;56.00;;;;;;;19.61;48.58;100617.19;5096711;28;20024;-67
2023/07/05 08:47:57;;;;;;;60.55;57.65;;;;;;;19.61;49.01;100622.66;5096780;28;20039;-70
2023/07/05 08:50:32;;;;;;;58.83;55.72;;;;;;;19.61;49.20;100612.50;5096340;28;20039;-68
2023/07/05 08:53:20;;;;;;;60.05;57.03;;;;;;;19.62;49.07;100625.09;5096509;28;20082;-67
2023/07/05 08:56:02;;;;;;;59.50;56.43;;;;;;;19.64;49.15;100631.06;5095324;28;20023;-70
2023/07/05 08:58:43;;;;;;;56.05;53.25;;;;;;;19.66;49.03;100648.03;5095217;28;20266;-67
2023/07/05 09:01:17;;;;;;;59.15;56.42;;;;;;;19.68;48.92;100639.53;5096745;28;20020;-67
2023/07/05 09:03:43;;;;;;;61.78;57.95;;;;;;;19.69;48.96;100640.34;5096027;28;20520;-67
2023/07/05 09:06:16;;;;;;;59.05;56.25;;;;;;;19.69;49.76;100649.38;5095782;28;20028;-67
2023/07/05 09:08:45;;;;;;;60.95;57.90;;;;;;;19.73;49.30;100649.56;5096601;28;20048;-70
2023/07/05 09:11:13;;;;;;;;;;;;;;;19.76;49.78;100662.66;5096362;28;20047;-68
2023/07/05 09:13:40;;;;;;;55.97;52.97;;;;;;;19.77;49.56;100678.78;5096051;28;19912;-78
2023/07/05 09:16:30;;;;;;;58.93;56.03;;;;;;;19.79;49.72;100664.78;5095939;28;20035;-68
2023/07/05 09:19:20;;;;;;;60.88;57.78;;;;;;;19.80;49.78;100659.00;5096362;28;20505;-68
2023/07/05 09:22:09;;;;;;;59.42;56.38;;;;;;;19.84;49.71;100673.72;5095612;28;20024;-68
2023/07/05 09:24:40;;;;;;;56.28;53.50;;;;;;;19.87;49.17;100678.56;5095827;28;20024;-70
2023/07/05 09:27:10;;;;;;;58.05;55.15;;;;;;;19.92;49.28;100679.59;5094467;28;20356;-68
2023/07/05 09:29:54;;;;;;;59.25;56.10;;;;;;;19.96;49.50;100683.31;5095695;28;20032;-70
2023/07/05 09:32:28;;;;;;;60.95;57.75;;;;;;;19.99;49.37;100702.72;5096214;28;20035;-68
2023/07/05 09:34:57;;;;;;;62.40;59.40;;;;;;;20.04;48.70;100699.06;5095110;28;20083;-72
2023/07/05 09:37:27;;;;;;;60.30;57.30;;;;;;;20.07;49.23;100729.41;5095554;28;20028;-73
2023/07/05 09:40:19;;;;;;;60.88;57.97;;;;;;;20.10;48.80;100711.53;5095322;28;20107;-69
2023/07/05 09:42:56;;;;;;;60.17;57.30;;;;;;;20.14;48.41;100709.81;5095343;28;20032;-68
2023/07/05 09:45:21;;;;;;;59.90;57.10;;;;;;;20.18;48.72;100721.78;5095583;28;20031;-71
2023/07/05 09:47:51;;;;;;;62.60;58.78;;;;;;;20.22;48.54;100724.72;5095171;28;20089;-70
2023/07/05 09:50:20;;;;;;;59.70;56.90;;;;;;;20.26;47.91;100726.56;5095100;28;20455;-69
2023/07/05 09:52:49;;;;;;;62.83;59.75;;;;;;;20.29;47.91;100741.59;5095382;28;20039;-70
2023/07/05 09:55:16;;;;;;;;;;;;;;;20.33;47.57;100739.84;5095814;28;20032;-68
2023/07/05 09:57:45;;;;;;;57.95;55.30;;;;;;;20.36;47.58;100763.94;5095065;28;20016;-69
2023/07/05 10:00:32;;;;;;;59.40;56.53;;;;;;;20.42;47.24;100750.91;5077695;28;20487;-68
2023/07/05 10:03:06;;;;;;;62.30;59.40;;;;;;;20.46;47.23;100757.38;5094980;28;20163;-67
2023/07/05 10:05:31;;;;;;;61.92;59.03;;;;;;;20.49;47.18;100757.59;5094966;28;20028;-67
2023/07/05 10:08:00;;;;;;;65.68;62.55;;;;;;;20.53;46.96;100764.06;5093440;28;20526;-67
2023/07/05 10:10:35;;;;;;;;;;;;;;;20.58;46.78;100762.38;5095526;28;20334;-67
2023/07/05 10:13:18;;;;;;;61.35;58.38;;;;;;;20.62;46.76;100785.34;5095282;28;19962;-68
2023/07/05 10:15:47;;;;;;;60.72;57.92;;;;;;;20.65;46.78;100777.28;5094689;28;20036;-76
2023/07/05 10:18:27;;;;;;;61.90;59.03;;;;;;;20.71;46.39;100780.72;5094817;28;20039;-68
2023/07/05 10:20:55;;;;;;;65.03;61.92;;;;;;;20.78;46.71;100810.50;5094553;28;20085;-68
2023/07/05 10:23:22;;;;;;;63.50;60.50;;;;;;;20.85;46.55;100794.41;5095105;28;20430;-71
2023/07/05 10:25:49;;;;;;;67.93;64.73;;;;;;;20.93;46.50;100793.66;5094656;28;20028;-67
2023/07/05 10:28:17;;;;;;;64.68;61.72;;;;;;;20.98;45.89;100811.97;5094777;28;20028;-67
2023/07/05 10:30:59;;;;;;;66.97;63.67;;;;;;;21.04;46.14;100808.78;5094370;28;20055;-68
2023/07/05 10:33:30;;;;;;;64.18;60.97;;;;;;;21.11;46.00;100811.06;5093691;28;20024;-67
2023/07/05 10:36:12;;;;;;;66.25;63.25;;;;;;;21.17;45.57;100818.91;5093934;28;20419;-69
2023/07/05 10:38:50;;;;;;;65.22;62.17;;;;;;;21.25;45.35;100820.06;5094392;28;20034;-68
2023/07/05 10:41:19;;;;;;;64.32;61.33;;;;;;;21.33;45.43;100816.56;5094263;28;20032;-70
2023/07/05 10:43:55;;;;;;;67.32;64.18;;;;;;;21.38;45.73;100821.97;5092900;28;20040;-67
2023/07/05 10:46:24;;;;;;;66.53;63.13;;;;;;;21.46;45.48;100823.16;5094159;28;20067;-74
2023/07/05 10:48:51;;;;;;;66.07;62.97;;;;;;;21.52;45.45;100826.56;5094068;28;20055;-67
2023/07/05 10:51:20;;;;;;;68.72;65.53;;;;;;;21.58;45.07;100834.38;5094365;28;20064;-68
2023/07/05 10:54:00;;;;;;;69.82;66.20;;;;;;;21.65;45.30;100844.13;5092616;28;20382;-73
2023/07/05 10:56:31;;;;;;;68.95;65.85;;;;;;;21.71;44.58;100845.59;5093969;28;20024;-68
2023/07/05 10:59:12;;;;;;;70.88;67.57;;;;;;;21.77;44.78;100845.16;5093684;28;20111;-66
2023/07/05 11:01:47;;;;;;;68.13;64.93;;;;;;;21.84;44.35;100861.19;5093615;28;20027;-72
2023/07/05 11:04:18;;;;;;;69.50;66.40;;;;;;;21.90;44.25;100854.44;5094243;28;20028;-69
2023/07/05 11:06:47;;;;;;;71.38;67.97;;;;;;;21.96;44.48;100869.66;5093534;28;20032;-67
2023/07/05 11:09:13;;;;;;;71.40;68.20;;;;;;;22.03;43.86;100853.53;5092487;28;20024;-67
2023/07/05 11:11:50;;;;;;;68.78;65.72;;;;;;;22.10;43.42;100858.59;5093591;28;20051;-74
2023/07/05 11:14:16;;;;;;;70.78;67.30;;;;;;;22.17;43.93;100855.34;5093499;28;20368;-68
2023/07/05 11:16:45;;;;;;;72.72;69.47;;;;;;;22.23;43.64;100874.19;5093455;28;20122;-68
2023/07/05 11:19:14;;;;;;;72.60;69.38;;;;;;;22.31;43.77;100869.03;5093573;28;20399;-69